Saint Francis, KS

11:31 AM CDT on August 27, 2016 (GMT -0500)
Cheyenne County Municipal

Weather History for KSYF - October, 2013

Change the Weather History Date:

Tuesday, October 15, 2013

  Actual Average Record
Temperature  
Mean Temperature 41 °F -  
Max Temperature 50 °F 67 °F 83 °F (2014)
Min Temperature 32 °F 36 °F 32 °F (2013)
Degree Days  
Heating Degree Days 24    
Moisture  
Dew Point 27 °F    
Average Humidity 59    
Maximum Humidity 79    
Minimum Humidity 39    
Precipitation  
Precipitation 0.00 in - - ()
Sea Level Pressure  
Sea Level Pressure 30.19 in    
Wind  
Wind Speed 16 mph (NW)    
Max Wind Speed 24 mph    
Max Gust Speed 32 mph    
Visibility 10 miles    
Events      
Averages and records for this station are not official NWS values.
T = Trace of Precipitation, MM = Missing Value Source: NWS Daily Summary

Daily Weather History Graph

Daily Weather History Graph

Search for Another Location

Airport or City:

Trip Planner

Search our weather history database for the weather conditions in past years. The results will help you decide how hot, cold, wet, or windy it might be!

Date:

Astronomy

Oct. 15, 2013 Rise Set
Actual Time 7:57 AM CDT 7:07 PM CDT
Civil Twilight 7:30 AM CDT 7:34 PM CDT
Nautical Twilight 6:59 AM CDT 8:05 PM CDT
Astronomical Twilight 6:27 AM CDT 8:37 PM CDT
Moon 5:13 PM CDT (10/15) 4:23 AM CDT (10/15)
Length of Visible Light 12h 04m
Length of Day
11h 09m
Waxing Gibbous, 88% of the Moon is Illuminated
Oct 15
Waxing Gibbous
Oct 18
Full
Oct 26
Last Quarter
Nov 3
New
Nov 9
First Quarter

Hourly Weather History & Observations

Time (CDT) Temp. Windchill Dew Point Humidity Pressure Visibility Wind Dir Wind Speed Gust Speed Precip Events Conditions
12:15 AM 39.9 °F 30.8 °F 30.0 °F 68% 30.10 in 10.0 mi NW 18.4 mph 25.3 mph N/A   Clear
12:35 AM 39.4 °F 30.1 °F 29.8 °F 69% 30.10 in 10.0 mi NW 18.4 mph 23.0 mph N/A   Clear
12:55 AM 39.2 °F 29.8 °F 29.8 °F 69% 30.10 in 10.0 mi NW 18.4 mph 23.0 mph N/A   Clear
1:15 AM 39.0 °F 30.3 °F 29.7 °F 69% 30.10 in 10.0 mi NW 16.1 mph 24.2 mph N/A   Clear
1:35 AM 38.8 °F 30.0 °F 29.7 °F 70% 30.11 in 10.0 mi NW 16.1 mph 23.0 mph N/A   Clear
1:55 AM 38.5 °F 29.2 °F 29.7 °F 71% 30.11 in 10.0 mi NW 17.3 mph 21.9 mph N/A   Clear
2:15 AM 38.3 °F 30.1 °F 29.3 °F 70% 30.12 in 10.0 mi NW 13.8 mph 23.0 mph N/A   Clear
2:35 AM 37.9 °F 29.6 °F 29.3 °F 71% 30.13 in 10.0 mi NW 13.8 mph 19.6 mph N/A   Clear
2:55 AM 37.8 °F 29.4 °F 29.1 °F 71% 30.13 in 10.0 mi NW 13.8 mph 21.9 mph N/A   Clear
3:15 AM 37.4 °F 29.3 °F 28.9 °F 71% 30.14 in 10.0 mi WNW 12.7 mph 19.6 mph N/A   Clear
3:35 AM 37.2 °F 29.6 °F 29.1 °F 73% 30.14 in 10.0 mi WNW 11.5 mph 17.3 mph N/A   Clear
3:55 AM 36.5 °F 28.7 °F 29.1 °F 75% 30.14 in 10.0 mi WNW 11.5 mph - N/A   Clear
4:15 AM 36.5 °F 28.2 °F 28.9 °F 74% 30.14 in 10.0 mi WNW 12.7 mph - N/A   Clear
4:35 AM 36.5 °F 27.8 °F 28.6 °F 73% 30.15 in 10.0 mi NW 13.8 mph 19.6 mph N/A   Clear
4:55 AM 36.3 °F 28.9 °F 28.8 °F 74% 30.15 in 10.0 mi NW 10.4 mph 17.3 mph N/A   Clear
5:15 AM 36.3 °F 28.9 °F 28.4 °F 73% 30.15 in 10.0 mi NW 10.4 mph 19.6 mph N/A   Clear
5:35 AM 35.6 °F 27.1 °F 28.4 °F 75% 30.15 in 10.0 mi NW 12.7 mph 18.4 mph N/A   Clear
5:55 AM 35.6 °F 28.0 °F 28.4 °F 75% 30.15 in 10.0 mi NW 10.4 mph 17.3 mph N/A   Clear
6:15 AM 35.1 °F 26.9 °F 28.0 °F 76% 30.15 in 10.0 mi NW 11.5 mph 17.3 mph N/A   Clear
6:35 AM 35.6 °F 26.6 °F 28.0 °F 74% 30.15 in 10.0 mi NW 13.8 mph 24.2 mph N/A   Clear
6:55 AM 35.6 °F 25.9 °F 28.0 °F 74% 30.15 in 10.0 mi NW 16.1 mph 20.7 mph N/A   Clear
7:15 AM 35.1 °F 25.9 °F 28.0 °F 76% 30.16 in 10.0 mi NW 13.8 mph 19.6 mph N/A   Clear
7:35 AM 34.9 °F 26.6 °F 28.0 °F 76% 30.18 in 10.0 mi NW 11.5 mph 17.3 mph N/A   Clear
7:55 AM 34.9 °F 25.7 °F 28.0 °F 76% 30.18 in 10.0 mi NW 13.8 mph - N/A   Clear
8:15 AM 35.6 °F 28.0 °F 27.9 °F 73% 30.19 in 10.0 mi NW 10.4 mph 17.3 mph N/A   Clear
8:35 AM 36.0 °F 28.0 °F 28.2 °F 73% 30.20 in 10.0 mi WNW 11.5 mph - N/A   Clear
8:55 AM 37.2 °F 29.1 °F 28.4 °F 70% 30.21 in 10.0 mi NW 12.7 mph 18.4 mph N/A   Clear
9:15 AM 38.7 °F 29.1 °F 28.8 °F 68% 30.22 in 10.0 mi NW 18.4 mph - N/A   Clear
9:35 AM 40.1 °F 31.0 °F 28.8 °F 64% 30.22 in 10.0 mi NW 18.4 mph 25.3 mph N/A   Clear
9:55 AM 41.0 °F 30.9 °F 28.0 °F 60% 30.23 in 10.0 mi NW 24.2 mph 29.9 mph N/A   Clear
10:15 AM 42.4 °F 33.5 °F 27.5 °F 56% 30.24 in 10.0 mi NW 20.7 mph 29.9 mph N/A   Clear
10:35 AM 43.0 °F 34.2 °F 27.0 °F 53% 30.24 in 10.0 mi NW 20.7 mph 27.6 mph N/A   Clear
10:55 AM 44.1 °F 36.8 °F 27.1 °F 51% 30.24 in 10.0 mi NW 16.1 mph 26.5 mph N/A   Clear
11:15 AM 44.2 °F 35.9 °F 26.4 °F 50% 30.25 in 10.0 mi NW 20.7 mph 27.6 mph N/A   Scattered Clouds
11:35 AM 45.3 °F 37.1 °F 26.2 °F 47% 30.24 in 10.0 mi NW 21.9 mph 28.8 mph N/A   Scattered Clouds
11:55 AM 46.6 °F - 26.2 °F 45% 30.24 in 10.0 mi NNW 21.9 mph 32.2 mph N/A   Scattered Clouds
12:15 PM 47.5 °F - 26.2 °F 44% 30.23 in 10.0 mi NNW 20.7 mph 28.8 mph N/A   Scattered Clouds
12:35 PM 46.8 °F - 25.7 °F 44% 30.24 in 10.0 mi NNW 21.9 mph 27.6 mph N/A   Mostly Cloudy
12:55 PM 48.4 °F - 26.2 °F 42% 30.23 in 10.0 mi NNW 20.7 mph 27.6 mph N/A   Mostly Cloudy
1:15 PM 47.8 °F - 25.9 °F 42% 30.23 in 10.0 mi NW 19.6 mph 26.5 mph N/A   Mostly Cloudy
1:35 PM 48.6 °F - 26.1 °F 42% 30.22 in 10.0 mi NNW 21.9 mph 32.2 mph N/A   Mostly Cloudy
1:55 PM 49.6 °F - 26.4 °F 41% 30.21 in 10.0 mi NNW 19.6 mph 28.8 mph N/A   Mostly Cloudy
2:15 PM 48.7 °F - 25.7 °F 41% 30.20 in 10.0 mi NNW 19.6 mph 28.8 mph N/A   Mostly Cloudy
2:35 PM 49.3 °F - 26.4 °F 41% 30.20 in 10.0 mi NW 21.9 mph 28.8 mph N/A   Mostly Cloudy
2:55 PM 49.5 °F - 26.2 °F 40% 30.20 in 10.0 mi NW 24.2 mph 32.2 mph N/A   Overcast
3:15 PM 50.0 °F - 26.2 °F 40% 30.20 in 10.0 mi NW 20.7 mph 27.6 mph N/A   Mostly Cloudy
3:35 PM 49.1 °F - 25.7 °F 40% 30.19 in 10.0 mi NNW 19.6 mph 29.9 mph N/A   Mostly Cloudy
3:55 PM 49.6 °F - 25.9 °F 40% 30.19 in 10.0 mi NNW 17.3 mph 32.2 mph N/A   Mostly Cloudy
4:15 PM 49.3 °F - 25.3 °F 39% 30.19 in 10.0 mi NNW 19.6 mph 28.8 mph N/A   Mostly Cloudy
4:35 PM 48.0 °F - 26.1 °F 42% 30.19 in 10.0 mi NNW 18.4 mph 27.6 mph N/A   Mostly Cloudy
4:55 PM 46.8 °F - 25.7 °F 44% 30.19 in 10.0 mi NNW 15.0 mph 28.8 mph N/A   Scattered Clouds
5:15 PM 47.5 °F - 25.7 °F 43% 30.19 in 10.0 mi NNW 18.4 mph 27.6 mph N/A   Mostly Cloudy
5:35 PM 46.4 °F 39.2 °F 25.7 °F 44% 30.19 in 10.0 mi North 18.4 mph 23.0 mph N/A   Overcast
5:55 PM 46.2 °F 39.0 °F 25.5 °F 44% 30.19 in 10.0 mi NNW 18.4 mph 24.2 mph N/A   Overcast
6:15 PM 45.0 °F 37.4 °F 25.7 °F 47% 30.19 in 10.0 mi North 18.4 mph 23.0 mph N/A   Mostly Cloudy
6:35 PM 44.6 °F 36.4 °F 25.9 °F 48% 30.19 in 10.0 mi NNW 20.7 mph 25.3 mph N/A   Overcast
6:55 PM 43.5 °F 36.7 °F 25.9 °F 50% 30.19 in 10.0 mi NNW 13.8 mph 20.7 mph N/A   Overcast
7:15 PM 42.8 °F 35.8 °F 26.4 °F 52% 30.19 in 10.0 mi NNW 13.8 mph 18.4 mph N/A   Overcast
7:55 PM 42.8 °F 35.4 °F 26.2 °F 52% 30.21 in 10.0 mi North 15.0 mph 20.7 mph N/A   Overcast
8:15 PM 42.4 °F 37.5 °F 27.0 °F 54% 30.21 in 10.0 mi NNW 8.1 mph - N/A   Overcast
8:35 PM 42.3 °F 34.8 °F 26.2 °F 53% 30.22 in 10.0 mi NNW 15.0 mph 20.7 mph N/A   Overcast
8:55 PM 41.9 °F 35.9 °F 26.6 °F 55% 30.22 in 10.0 mi NW 10.4 mph 18.4 mph N/A   Overcast
9:15 PM 41.2 °F 35.5 °F 26.4 °F 56% 30.23 in 10.0 mi NW 9.2 mph - N/A   Overcast
9:35 PM 41.0 °F 34.7 °F 26.6 °F 57% 30.23 in 10.0 mi NW 10.4 mph - N/A   Overcast
9:55 PM 40.6 °F 34.8 °F 26.6 °F 57% 30.23 in 10.0 mi NW 9.2 mph - N/A   Overcast
10:15 PM 40.1 °F 35.3 °F 26.8 °F 59% 30.24 in 10.0 mi NW 6.9 mph - N/A   Overcast
10:35 PM 37.8 °F 34.2 °F 27.0 °F 65% 30.24 in 10.0 mi NW 4.6 mph - N/A   Mostly Cloudy
10:55 PM 36.1 °F 31.4 °F 26.6 °F 68% 30.24 in 10.0 mi WNW 5.8 mph - N/A   Clear
11:15 PM 36.0 °F 31.1 °F 26.8 °F 69% 30.23 in 10.0 mi NW 5.8 mph - N/A   Clear
11:35 PM 32.7 °F 26.4 °F 26.4 °F 78% 30.24 in 10.0 mi West 6.9 mph - N/A   Clear
11:55 PM 32.2 °F 25.8 °F 26.4 °F 79% 30.24 in 10.0 mi West 6.9 mph - N/A   Scattered Clouds